Etusivu
METAR-TAF:

METAR-TAF

Lentoasemat :

A.L. Mangham Jr. Regional Airport

Nacogdoches, Texas, Yhdysvallat

Leveyspiiri: 31-35N, Pituuspiiri: 094-43W, korkeus merenpinnasta: 108 m

Tämänhetkinen sää

Tämä raportti tehtiin 13 minuuttia sitten, kello 09.56 UTC
Tuuli 5 kn etelästä/lounaasta
Lämpötila 17°C
Kosteus 94%
Ilmanpaine 1016 hPa
Näkyvyys: 16.1 km
Pilvistä 1400 ft:n korkeudessa

METAR: KOCH 060956Z AUTO 20005KT 10SM OVC014 17/16 A3000 RMK AO2 SLP163 T01670161

Aika: 04:09 (10:09 UTC)


TAF: puuttuu

Säähavainnot ja -ennusteet yli 4000 lentoasemalta (METAR- ja TAF-raportit).

Käytössä olevat sääasemat on merkitty karttaan keltaisilla ja punaisilla pisteillä.

Aseta hiiri pisteen päälle nähdäksesi sääaseman nimen.

Klikkaa sitten nähdäksesi säähavainnot ja -ennusteet.

Kartan vaihtaminen: klikkaa mustalla rastilla varustettuja vihreitä pisteitä, niin voit zoomata sisään; viivalla varustettua vihreää pistettä, niin voit zoomata ulos tai vihreitä nuolia, niin pääset viereisille kartoille.


METAR-TAF: